Terminal Aerodrome Forecast
Issued by NWS

Home | Current Version | Previous Version | Text Only | Print | Product List | Glossary Off
Versions: 1 2 3 4 5 6 7 8 9 10 11 12 13 14 15 16 17 18 19

000
FTUS43 KMPX 201139
TAFRNH
TAF
KRNH 201139Z 2012/2112 14009KT P6SM OVC200
     FM201600 14011KT 6SM -SHRA BR VCTS SCT020 OVC035CB
      TEMPO 2016/2019 2SM SHRA BR OVC020
     FM201900 17011KT 4SM -RA BR OVC012
     FM210200 23008KT P6SM SCT012 OVC020
     FM210400 27008KT P6SM SCT025=

USA.gov is the U.S. government's official web portal to all federal, state and local government web resources and services.